Novinger, Missouri
Current Conditions -  °F | °C
As of 9:13 AM on Friday 19 Dec 2014 (Local Time) from KIRK Reporting Station
Haze Haze  
Wind Chill: 24°   Ceiling: 700
Heat Index: 30°   Visibility: 3mi
Dew Point: 27°   Wind: 6mph
Humidity: 88%   Direction: 120°ESE
Pressure: 30.29"   Gusts: NA
Location:  40.23°N, 92.71°W
Report Text: KIRK 191513Z AUTO 12005KT 3SM BR BKN007 BKN025 OVC049 M01/M03 A3029 RMK AO2 T10111028
Loading
Personal Weather Stations






























Interactive Weather Map New forecast layout! Learn more

10-Day Weather Forecast

Advertisements
Track Severe Weather on mobile